Time;durP1;ratioP1;P1;durP2;ratioP2;P2;SDS_P1;SDS_P2;PMS_P1;PMS_P2;Temp;Humidity;BMP_temperature;BMP_pressure;BME280_temperature;BME280_humidity;BME280_pressure;Samples;Min_cycle;Max_cycle;Signal;HPM_P1;HPM_P2
2023/06/05 00:00:16;;;;;;;5.13;3.00;;;;;;;15.84;76.34;102243.72;4969622;28;20050;-66
2023/06/05 00:02:43;;;;;;;4.82;3.20;;;;;;;15.83;75.16;102253.50;4993757;28;20050;-67
2023/06/05 00:05:10;;;;;;;4.65;2.75;;;;;;;15.84;74.47;102252.53;4982912;28;20475;-67
2023/06/05 00:07:39;;;;;;;6.07;3.13;;;;;;;15.81;75.93;102250.16;4980778;28;20506;-66
2023/06/05 00:10:08;;;;;;;9.27;3.40;;;;;;;15.77;76.08;102251.44;4979804;28;20257;-66
2023/06/05 00:12:35;;;;;;;6.90;3.33;;;;;;;15.65;78.43;102248.09;4975066;28;20053;-66
2023/06/05 00:15:01;;;;;;;8.55;3.08;;;;;;;15.62;77.88;102246.59;4964350;28;20365;-66
2023/06/05 00:17:30;;;;;;;6.20;3.13;;;;;;;15.56;76.74;102249.81;4985986;28;20057;-67
2023/06/05 00:19:58;;;;;;;;;;;;;;;15.54;78.82;102246.47;4977655;28;20503;-67
2023/06/05 00:22:28;;;;;;;5.10;3.30;;;;;;;15.52;78.16;102247.59;4993771;28;19922;-66
2023/06/05 00:24:55;;;;;;;5.53;3.20;;;;;;;15.45;78.19;102247.34;4977371;28;20062;-67
2023/06/05 00:27:21;;;;;;;7.03;3.33;;;;;;;15.43;77.62;102247.47;4974719;28;20057;-66
2023/06/05 00:29:49;;;;;;;7.88;3.75;;;;;;;15.38;79.17;102246.22;4973872;28;20054;-66
2023/06/05 00:32:16;;;;;;;6.82;3.20;;;;;;;15.37;79.29;102241.94;4984163;28;20046;-66
2023/06/05 00:34:42;;;;;;;10.52;3.45;;;;;;;15.33;78.39;102248.50;4976352;28;20137;-67
2023/06/05 00:37:09;;;;;;;6.88;3.40;;;;;;;15.26;80.21;102247.38;4975756;28;20145;-67
2023/06/05 00:39:35;;;;;;;7.55;3.58;;;;;;;15.20;80.45;102244.31;4972976;28;20046;-68
2023/06/05 00:42:02;;;;;;;5.97;3.53;;;;;;;15.22;80.68;102233.63;4980450;28;20557;-67
2023/06/05 00:44:28;;;;;;;6.70;3.65;;;;;;;15.19;80.02;102233.88;4989398;28;20057;-67
2023/06/05 00:46:55;;;;;;;8.02;3.83;;;;;;;15.26;80.83;102244.75;4991222;28;20081;-67
2023/06/05 00:49:22;;;;;;;6.95;3.50;;;;;;;15.19;80.12;102234.75;4980461;28;20101;-67
2023/06/05 00:51:49;;;;;;;6.57;3.50;;;;;;;15.15;81.56;102243.06;4985566;28;20054;-67
2023/06/05 00:54:16;;;;;;;7.57;3.55;;;;;;;15.10;81.99;102243.50;4969604;28;20042;-67
2023/06/05 00:56:44;;;;;;;6.90;3.40;;;;;;;15.14;80.37;102244.06;4986313;28;20050;-67
2023/06/05 00:59:13;;;;;;;7.65;3.78;;;;;;;15.11;81.39;102245.19;4966627;28;20058;-67
2023/06/05 01:01:42;;;;;;;6.68;3.70;;;;;;;15.07;81.49;102242.97;4969150;28;20081;-65
2023/06/05 01:04:09;;;;;;;8.32;3.72;;;;;;;15.05;82.42;102245.72;4984745;28;20093;-65
2023/06/05 01:06:38;;;;;;;7.15;3.33;;;;;;;15.02;81.12;102236.28;4967714;28;20546;-65
2023/06/05 01:09:08;;;;;;;8.05;3.60;;;;;;;15.00;82.21;102242.69;4971406;28;20082;-65
2023/06/05 01:11:58;;;;;;;5.90;3.83;;;;;;;15.05;82.28;102242.25;4979920;28;20050;-65
2023/06/05 01:14:30;;;;;;;5.95;3.75;;;;;;;14.99;81.71;102235.72;4974942;28;20117;-65
2023/06/05 01:17:00;;;;;;;8.93;4.32;;;;;;;14.95;82.67;102243.09;4980269;28;20137;-66
2023/06/05 01:19:34;;;;;;;7.28;3.35;;;;;;;14.91;82.40;102236.44;4974954;28;20061;-67
2023/06/05 01:22:01;;;;;;;7.65;4.13;;;;;;;14.91;82.43;102240.88;4967822;28;20054;-64
2023/06/05 01:24:28;;;;;;;7.05;3.65;;;;;;;14.92;81.04;102234.66;4972824;28;20152;-66
2023/06/05 01:26:54;;;;;;;8.10;4.18;;;;;;;14.88;81.98;102233.22;4984168;28;20108;-65
2023/06/05 01:29:28;;;;;;;7.53;3.95;;;;;;;14.86;82.45;102229.91;4989426;28;20096;-65
2023/06/05 01:32:01;;;;;;;7.18;3.50;;;;;;;14.86;83.07;102229.91;4975316;28;20064;-65
2023/06/05 01:34:28;;;;;;;7.00;4.47;;;;;;;14.81;84.28;102233.78;4978090;28;20423;-68
2023/06/05 01:36:56;;;;;;;6.97;4.05;;;;;;;14.75;83.52;102225.59;4992110;28;20112;-65
2023/06/05 01:39:24;;;;;;;8.52;4.22;;;;;;;14.72;83.70;102225.88;4964015;28;20737;-65
2023/06/05 01:41:53;;;;;;;9.77;4.20;;;;;;;14.63;85.38;102228.38;4979849;28;20054;-65
2023/06/05 01:44:19;;;;;;;;;;;;;;;14.61;85.84;102230.31;4984985;28;20158;-66
2023/06/05 01:46:47;;;;;;;6.85;4.40;;;;;;;14.58;85.81;102227.97;4972402;28;19957;-65
2023/06/05 01:49:14;;;;;;;6.00;3.90;;;;;;;14.57;84.36;102228.94;4966581;28;20102;-65
2023/06/05 01:51:40;;;;;;;7.75;4.78;;;;;;;14.47;86.27;102220.16;4981252;28;20053;-64
2023/06/05 01:54:07;;;;;;;9.52;4.90;;;;;;;14.41;89.04;102221.53;4970186;28;20129;-66
2023/06/05 01:56:36;;;;;;;7.68;4.65;;;;;;;14.35;88.26;102215.97;4974787;28;20049;-64
2023/06/05 01:59:06;;;;;;;8.63;4.65;;;;;;;14.31;89.01;102222.47;4975243;28;20678;-65
2023/06/05 02:01:34;;;;;;;10.10;4.72;;;;;;;14.29;88.62;102219.13;4969388;28;20548;-64
2023/06/05 02:04:05;;;;;;;5.97;4.53;;;;;;;14.30;89.97;102220.81;4969805;28;20059;-64
2023/06/05 02:06:41;;;;;;;9.20;4.85;;;;;;;14.26;89.98;102208.88;4970326;28;20050;-65
2023/06/05 02:09:10;;;;;;;7.00;3.90;;;;;;;14.20;89.81;102221.63;4979306;28;20090;-64
2023/06/05 02:11:42;;;;;;;6.78;4.28;;;;;;;14.17;89.55;102216.66;4972911;28;20432;-64
2023/06/05 02:14:12;;;;;;;7.25;4.80;;;;;;;14.11;91.40;102216.34;4959910;28;20090;-64
2023/06/05 02:16:40;;;;;;;9.38;5.20;;;;;;;14.13;89.91;102214.41;4973925;28;20062;-64
2023/06/05 02:19:07;;;;;;;7.47;4.60;;;;;;;14.08;89.46;102211.34;4987353;28;20057;-64
2023/06/05 02:21:34;;;;;;;7.20;4.60;;;;;;;14.04;91.30;102208.97;4978121;28;20129;-65
2023/06/05 02:24:00;;;;;;;7.93;5.18;;;;;;;14.00;92.06;102210.22;4986559;28;20062;-64
2023/06/05 02:26:27;;;;;;;7.80;5.40;;;;;;;14.00;91.74;102210.22;4982397;28;20293;-66
2023/06/05 02:28:55;;;;;;;9.15;4.97;;;;;;;13.97;92.83;102213.09;4977644;28;20050;-64
2023/06/05 02:31:24;;;;;;;7.43;4.88;;;;;;;13.92;92.33;102212.69;4978237;28;20057;-64
2023/06/05 02:33:55;;;;;;;8.55;5.53;;;;;;;13.92;93.79;102211.88;4986249;28;20054;-65
2023/06/05 02:36:23;;;;;;;8.75;5.70;;;;;;;13.89;94.48;102212.13;4991700;28;20454;-65
2023/06/05 02:38:51;;;;;;;8.23;5.32;;;;;;;13.88;93.67;102208.66;4974612;28;20058;-65
2023/06/05 02:41:19;;;;;;;9.80;5.50;;;;;;;13.80;94.46;102214.59;4967615;28;20051;-64
2023/06/05 02:43:45;;;;;;;8.93;5.50;;;;;;;13.73;92.88;102205.53;4974847;28;20058;-64
2023/06/05 02:46:12;;;;;;;9.25;6.07;;;;;;;13.72;96.61;102198.63;4975340;28;20062;-64
2023/06/05 02:48:38;;;;;;;8.77;5.00;;;;;;;13.70;95.59;102199.69;4977267;28;20058;-63
2023/06/05 02:51:06;;;;;;;11.05;5.93;;;;;;;13.67;96.44;102197.34;4975069;28;20046;-66
2023/06/05 02:53:33;;;;;;;13.90;5.68;;;;;;;13.59;95.02;102193.56;4991793;28;20050;-66
2023/06/05 02:56:01;;;;;;;10.15;5.07;;;;;;;13.65;94.88;102192.19;4958141;28;20090;-66
2023/06/05 02:58:28;;;;;;;10.45;6.30;;;;;;;13.62;96.39;102192.44;4972567;28;20050;-65
2023/06/05 03:00:55;;;;;;;8.43;5.00;;;;;;;13.58;96.23;102196.31;4969397;28;20054;-64
2023/06/05 03:03:25;;;;;;;10.55;6.43;;;;;;;13.56;97.36;102198.25;4973691;28;20085;-64
2023/06/05 03:05:53;;;;;;;10.32;5.75;;;;;;;13.45;97.19;102186.00;4976981;28;20054;-64
2023/06/05 03:08:19;;;;;;;9.10;5.95;;;;;;;13.55;95.74;102184.25;4979037;28;20949;-64
2023/06/05 03:10:46;;;;;;;8.80;5.18;;;;;;;13.57;94.84;102192.84;4975771;28;20046;-64
2023/06/05 03:13:12;;;;;;;11.00;6.28;;;;;;;13.51;97.32;102187.28;4975493;28;20054;-65
2023/06/05 03:15:39;;;;;;;8.63;5.57;;;;;;;13.50;95.90;102183.78;4979218;28;20043;-64
2023/06/05 03:18:06;;;;;;;8.23;5.72;;;;;;;13.49;96.14;102179.50;4979484;28;20058;-64
2023/06/05 03:20:32;;;;;;;13.07;6.60;;;;;;;13.47;98.31;102172.72;4989886;28;20046;-64
2023/06/05 03:22:59;;;;;;;10.85;6.80;;;;;;;13.40;99.20;102177.66;4973492;28;20479;-64
2023/06/05 03:25:25;;;;;;;14.05;6.45;;;;;;;13.36;97.97;102182.34;4977526;28;20443;-64
2023/06/05 03:27:52;;;;;;;9.35;5.85;;;;;;;13.35;96.98;102172.78;4979256;28;20062;-64
2023/06/05 03:30:19;;;;;;;9.43;6.07;;;;;;;13.31;97.72;102181.94;4977163;28;20059;-64
2023/06/05 03:32:45;;;;;;;11.05;5.97;;;;;;;13.34;97.20;102184.28;4962236;28;20519;-63
2023/06/05 03:35:12;;;;;;;11.23;7.18;;;;;;;13.36;96.67;102184.16;4985337;28;20410;-63
2023/06/05 03:37:38;;;;;;;9.18;6.60;;;;;;;13.35;99.51;102183.31;4978411;28;20113;-64
2023/06/05 03:40:05;;;;;;;12.38;7.15;;;;;;;13.33;99.20;102181.78;4961064;28;20054;-64
2023/06/05 03:42:32;;;;;;;9.57;6.50;;;;;;;13.28;98.81;102179.50;4975163;28;20141;-64
2023/06/05 03:44:58;;;;;;;10.63;6.40;;;;;;;13.30;98.53;102182.88;4987739;28;20168;-64
2023/06/05 03:47:28;;;;;;;13.68;7.32;;;;;;;13.28;99.65;102176.88;4973305;28;20050;-63
2023/06/05 03:49:55;;;;;;;11.38;7.03;;;;;;;13.26;99.28;102181.44;4979056;28;20052;-63
2023/06/05 03:52:25;;;;;;;11.65;7.15;;;;;;;13.23;99.80;102179.91;4961056;28;20475;-65
2023/06/05 03:54:53;;;;;;;10.27;6.45;;;;;;;13.24;99.29;102188.63;4987525;28;20050;-64
2023/06/05 03:57:20;;;;;;;11.50;6.70;;;;;;;13.22;100.00;102183.50;4985764;28;20146;-64
2023/06/05 03:59:46;;;;;;;9.52;6.45;;;;;;;13.19;99.30;102175.88;4977791;28;20054;-63
2023/06/05 04:02:13;;;;;;;11.75;6.88;;;;;;;13.17;100.00;102184.84;4989364;28;20054;-65
2023/06/05 04:04:40;;;;;;;10.40;7.15;;;;;;;13.16;100.00;102175.28;4971017;28;20501;-63
2023/06/05 04:07:06;;;;;;;9.90;6.63;;;;;;;13.18;100.00;102176.00;4972194;28;20086;-63
2023/06/05 04:09:33;;;;;;;9.35;5.68;;;;;;;13.20;100.00;102179.31;4980534;28;20681;-64
2023/06/05 04:11:59;;;;;;;9.20;5.97;;;;;;;13.19;100.00;102180.28;4988763;28;20495;-63
2023/06/05 04:14:26;;;;;;;11.38;6.40;;;;;;;13.17;100.00;102184.84;4982962;28;20046;-64
2023/06/05 04:16:52;;;;;;;12.63;6.97;;;;;;;13.18;100.00;102183.91;4978254;28;20421;-64
2023/06/05 04:19:20;;;;;;;11.10;7.00;;;;;;;13.17;100.00;102184.84;4987898;28;20054;-64
2023/06/05 04:21:46;;;;;;;11.27;6.05;;;;;;;13.21;98.43;102184.47;4982615;28;20073;-64
2023/06/05 04:24:12;;;;;;;10.63;7.13;;;;;;;13.20;100.00;102185.44;4982717;28;20130;-65
2023/06/05 04:26:45;;;;;;;18.23;7.85;;;;;;;13.20;100.00;102192.50;4974889;28;20054;-64
2023/06/05 04:29:15;;;;;;;12.63;7.75;;;;;;;13.18;100.00;102192.63;4981749;28;20148;-64
2023/06/05 04:31:44;;;;;;;10.60;7.13;;;;;;;13.18;100.00;102192.63;4977136;28;20058;-65
2023/06/05 04:34:11;;;;;;;11.68;7.00;;;;;;;13.16;100.00;102191.91;4960785;28;20128;-64
2023/06/05 04:36:38;;;;;;;11.88;6.82;;;;;;;13.16;100.00;102191.09;4972622;28;20141;-64
2023/06/05 04:39:04;;;;;;;10.93;6.65;;;;;;;13.15;100.00;102187.63;4971821;28;20142;-65
2023/06/05 04:41:32;;;;;;;10.40;6.85;;;;;;;13.18;100.00;102194.44;4990341;28;20052;-64
2023/06/05 04:44:01;;;;;;;10.95;6.72;;;;;;;13.18;100.00;102197.06;4965905;28;20082;-64
2023/06/05 04:46:28;;;;;;;11.40;6.82;;;;;;;13.19;100.00;102196.09;4975140;28;20438;-64
2023/06/05 04:48:57;;;;;;;11.13;6.75;;;;;;;13.21;100.00;102192.38;4976934;28;20058;-66
2023/06/05 04:51:24;;;;;;;11.15;6.80;;;;;;;13.20;100.00;102198.59;4966686;28;20089;-65
2023/06/05 04:53:52;;;;;;;12.18;7.22;;;;;;;13.19;100.00;102188.19;4976160;28;20098;-64
2023/06/05 04:56:22;;;;;;;15.23;6.78;;;;;;;13.23;100.00;102192.22;4968753;28;20070;-66
2023/06/05 04:58:50;;;;;;;13.45;6.28;;;;;;;13.22;100.00;102191.41;4975198;28;20053;-65
2023/06/05 05:01:17;;;;;;;12.07;6.88;;;;;;;13.22;100.00;102194.03;4974039;28;20594;-63
2023/06/05 05:03:45;;;;;;;9.27;5.88;;;;;;;13.27;99.90;102198.94;4965138;28;20054;-63
2023/06/05 05:06:16;;;;;;;10.70;6.72;;;;;;;13.32;99.85;102196.75;4955393;28;20554;-65
2023/06/05 05:08:48;;;;;;;9.43;5.90;;;;;;;13.35;98.44;102195.66;4981083;28;20518;-64
2023/06/05 05:11:15;;;;;;;11.52;6.43;;;;;;;13.34;98.16;102189.56;4973600;28;20043;-65
2023/06/05 05:13:42;;;;;;;10.48;5.93;;;;;;;13.38;99.50;102198.88;4962205;28;20050;-64
2023/06/05 05:16:09;;;;;;;10.70;5.90;;;;;;;13.39;99.15;102197.91;4971893;28;20416;-63
2023/06/05 05:18:40;;;;;;;11.25;6.70;;;;;;;13.42;100.00;102202.06;4970836;28;20046;-65
2023/06/05 05:21:07;;;;;;;12.50;5.55;;;;;;;13.44;97.08;102194.88;4964830;28;20054;-65
2023/06/05 05:23:34;;;;;;;11.10;5.90;;;;;;;13.48;99.59;102192.81;4979187;28;20546;-64
2023/06/05 05:26:01;;;;;;;11.82;6.20;;;;;;;13.49;99.33;102200.59;4975826;28;20137;-64
2023/06/05 05:28:28;;;;;;;12.02;6.68;;;;;;;13.52;97.50;102202.13;4975496;28;20419;-64
2023/06/05 05:30:58;;;;;;;10.40;6.05;;;;;;;13.51;96.50;102201.28;4981629;28;20084;-65
2023/06/05 05:33:24;;;;;;;9.35;5.35;;;;;;;13.57;96.35;102213.13;4975327;28;20104;-65
2023/06/05 05:35:51;;;;;;;11.52;6.65;;;;;;;13.51;100.00;102211.84;4983388;28;20058;-64
2023/06/05 05:38:17;;;;;;;13.82;6.80;;;;;;;13.54;98.83;102201.00;4984112;28;20085;-64
2023/06/05 05:40:44;;;;;;;9.10;5.78;;;;;;;13.57;97.91;102203.41;4974621;28;20089;-64
2023/06/05 05:43:10;;;;;;;10.20;6.65;;;;;;;13.63;98.15;102202.03;4984153;28;20053;-64
2023/06/05 05:45:39;;;;;;;12.80;6.63;;;;;;;13.67;97.76;102205.25;4968915;28;20047;-64
2023/06/05 05:48:05;;;;;;;17.40;6.47;;;;;;;13.71;97.37;102209.28;4970736;28;20054;-64
2023/06/05 05:50:32;;;;;;;11.02;6.70;;;;;;;13.70;97.97;102200.56;4980625;28;20075;-64
2023/06/05 05:52:58;;;;;;;8.65;6.00;;;;;;;13.73;95.63;102205.53;4971618;28;20058;-65
2023/06/05 05:55:25;;;;;;;10.82;7.05;;;;;;;13.73;96.00;102208.19;4971207;28;20226;-65
2023/06/05 05:57:51;;;;;;;13.27;6.95;;;;;;;13.76;97.47;102212.34;4980251;28;20050;-64
2023/06/05 06:00:18;;;;;;;9.50;6.53;;;;;;;13.73;97.81;102212.63;4978992;28;20559;-64
2023/06/05 06:02:47;;;;;;;8.80;6.25;;;;;;;13.78;95.87;102213.03;4968429;28;20047;-65
2023/06/05 06:05:13;;;;;;;11.77;7.50;;;;;;;13.78;97.41;102205.97;4981079;28;20918;-64
2023/06/05 06:07:41;;;;;;;11.15;6.53;;;;;;;13.83;96.76;102211.69;4971287;28;20496;-66
2023/06/05 06:10:08;;;;;;;10.65;6.53;;;;;;;13.87;95.67;102209.59;4974572;28;20193;-64
2023/06/05 06:12:34;;;;;;;11.50;6.75;;;;;;;13.90;94.69;102214.63;4966627;28;20116;-64
2023/06/05 06:15:01;;;;;;;11.45;6.78;;;;;;;13.97;94.48;102213.09;4970707;28;20078;-64
2023/06/05 06:17:28;;;;;;;14.50;6.75;;;;;;;14.00;94.81;102210.22;4981361;28;20046;-65
2023/06/05 06:19:55;;;;;;;15.77;6.50;;;;;;;14.03;93.14;102206.47;4983631;28;20050;-64
2023/06/05 06:22:21;;;;;;;10.23;6.43;;;;;;;14.12;94.84;102215.38;4972282;28;20145;-64
2023/06/05 06:24:50;;;;;;;11.50;6.63;;;;;;;14.15;94.91;102215.94;4975452;28;20567;-64
2023/06/05 06:27:17;;;;;;;9.95;6.40;;;;;;;14.21;93.97;102217.19;4976024;28;20054;-64
2023/06/05 06:30:01;;;;;;;11.38;6.78;;;;;;;14.19;93.46;102216.47;4986352;28;20050;-65
2023/06/05 06:32:27;;;;;;;8.18;5.50;;;;;;;14.26;90.89;102208.88;4971864;28;20049;-65
2023/06/05 06:34:55;;;;;;;8.00;5.28;;;;;;;14.34;91.38;102214.28;4973519;28;20060;-64
2023/06/05 06:37:22;;;;;;;11.38;6.38;;;;;;;14.36;91.34;102209.72;4976754;28;20051;-64
2023/06/05 06:39:49;;;;;;;9.57;5.95;;;;;;;14.37;91.80;102216.69;4975578;28;20488;-64
2023/06/05 06:42:16;;;;;;;8.68;5.45;;;;;;;14.39;91.84;102210.28;4972683;28;20043;-64
2023/06/05 06:44:43;;;;;;;13.15;6.22;;;;;;;14.41;90.73;102218.06;4977301;28;20064;-64
2023/06/05 06:47:09;;;;;;;10.35;5.35;;;;;;;14.42;90.68;102220.53;4973086;28;20082;-64
2023/06/05 06:49:36;;;;;;;9.40;5.72;;;;;;;14.47;90.60;102214.03;4980712;28;20054;-66
2023/06/05 06:52:03;;;;;;;10.93;5.53;;;;;;;14.49;91.34;102226.13;4985988;28;20054;-64
2023/06/05 06:54:29;;;;;;;8.85;4.80;;;;;;;14.58;87.95;102221.84;4987781;28;20081;-64
2023/06/05 06:56:56;;;;;;;10.60;6.30;;;;;;;14.59;88.58;102226.16;4967734;28;20057;-65
2023/06/05 06:59:23;;;;;;;11.60;5.85;;;;;;;14.65;88.85;102217.69;4981229;28;20050;-65
2023/06/05 07:02:13;;;;;;;8.57;5.68;;;;;;;14.72;86.05;102224.09;4976048;28;20070;-64
2023/06/05 07:04:41;;;;;;;8.20;5.55;;;;;;;14.75;88.84;102223.78;4972801;28;20047;-66
2023/06/05 07:07:10;;;;;;;8.27;5.22;;;;;;;14.81;87.73;102230.31;4977114;28;20074;-64
2023/06/05 07:09:36;;;;;;;10.00;5.40;;;;;;;14.83;87.71;102220.44;4974384;28;20050;-64
2023/06/05 07:12:07;;;;;;;7.30;4.45;;;;;;;14.94;87.31;102217.66;4972355;28;20708;-64
2023/06/05 07:14:33;;;;;;;8.90;5.55;;;;;;;15.02;87.28;102222.25;4976855;28;20434;-64
2023/06/05 07:17:00;;;;;;;13.20;5.45;;;;;;;15.11;85.61;102225.84;4970223;28;20051;-64
2023/06/05 07:19:30;;;;;;;10.95;4.75;;;;;;;15.14;84.82;102221.09;4971020;28;20047;-64
2023/06/05 07:21:57;;;;;;;8.60;5.30;;;;;;;15.19;83.81;102224.16;4985303;28;20148;-65
2023/06/05 07:24:25;;;;;;;9.40;5.50;;;;;;;15.28;84.27;102230.41;4975778;28;20081;-64
2023/06/05 07:26:57;;;;;;;8.77;5.68;;;;;;;15.27;85.49;102223.47;4980124;28;20109;-65
2023/06/05 07:29:24;;;;;;;9.20;4.43;;;;;;;15.33;82.36;102217.59;4985374;28;20077;-65
2023/06/05 07:31:53;;;;;;;9.52;4.68;;;;;;;15.41;84.25;102225.63;4970854;28;20051;-65
2023/06/05 07:34:21;;;;;;;8.65;5.22;;;;;;;15.49;85.02;102221.44;4982139;28;20057;-64
2023/06/05 07:36:50;;;;;;;11.45;6.25;;;;;;;15.55;84.13;102226.97;4966439;28;20114;-64
2023/06/05 07:39:17;;;;;;;5.95;3.90;;;;;;;15.65;82.52;102226.13;4984424;28;20053;-67
2023/06/05 07:41:44;;;;;;;9.23;5.50;;;;;;;15.61;84.93;102218.47;4972250;28;20101;-64
2023/06/05 07:44:12;;;;;;;9.80;4.93;;;;;;;15.74;84.92;102230.53;4975294;28;20296;-66
2023/06/05 07:46:39;;;;;;;8.10;4.90;;;;;;;15.80;82.36;102230.81;4989479;28;20111;-65
2023/06/05 07:49:07;;;;;;;10.00;5.03;;;;;;;15.89;82.94;102237.03;4990733;28;20058;-65
2023/06/05 07:51:35;;;;;;;12.40;4.60;;;;;;;15.98;81.06;102230.03;4975770;28;20451;-65
2023/06/05 07:54:03;;;;;;;10.38;4.75;;;;;;;16.07;83.56;102237.06;4982106;28;20061;-64
2023/06/05 07:56:31;;;;;;;9.05;4.70;;;;;;;16.10;83.04;102230.66;4979422;28;20043;-65
2023/06/05 07:58:58;;;;;;;5.90;3.60;;;;;;;16.15;79.95;102228.38;4964201;28;20138;-64
2023/06/05 08:01:25;;;;;;;11.20;4.88;;;;;;;16.20;81.86;102226.13;4978077;28;20058;-65
2023/06/05 08:03:52;;;;;;;10.55;4.90;;;;;;;16.21;83.02;102223.34;4985825;28;20050;-64
2023/06/05 08:06:24;;;;;;;8.48;4.55;;;;;;;16.25;81.84;102217.72;4981305;28;20042;-66
2023/06/05 08:08:50;;;;;;;;;;;;;;;16.39;82.45;102222.53;4987363;28;20057;-64
2023/06/05 08:11:17;;;;;;;8.98;5.32;;;;;;;16.42;82.08;102216.91;4969393;28;19925;-65
2023/06/05 08:13:43;;;;;;;9.98;5.70;;;;;;;16.40;82.88;102219.72;4969727;28;20166;-65
2023/06/05 08:16:10;;;;;;;10.68;5.00;;;;;;;16.50;83.65;102222.28;4963811;28;20056;-65
2023/06/05 08:18:36;;;;;;;11.32;4.70;;;;;;;16.60;81.14;102214.25;4983099;28;20096;-64
2023/06/05 08:21:03;;;;;;;9.27;4.90;;;;;;;16.71;80.61;102224.63;4986803;28;20054;-64
2023/06/05 08:23:29;;;;;;;10.57;5.35;;;;;;;16.74;81.59;102213.75;4975071;28;20480;-65
2023/06/05 08:25:56;;;;;;;9.90;4.75;;;;;;;16.92;80.00;102220.88;4977472;28;20051;-66
2023/06/05 08:28:22;;;;;;;8.45;4.55;;;;;;;17.08;80.02;102206.91;4968228;28;20096;-65
2023/06/05 08:30:51;;;;;;;10.95;5.32;;;;;;;17.31;79.69;102200.06;4987206;28;20058;-65
2023/06/05 08:33:21;;;;;;;7.50;5.28;;;;;;;17.68;77.01;102198.94;4960476;28;20098;-65
2023/06/05 08:35:47;;;;;;;7.20;5.20;;;;;;;18.08;74.97;102196.59;4987067;28;20085;-64
2023/06/05 08:38:14;;;;;;;13.55;5.25;;;;;;;18.42;73.76;102198.31;4975625;28;20055;-67
2023/06/05 08:40:41;;;;;;;7.70;4.90;;;;;;;18.82;71.65;102191.34;4971988;28;20061;-66
2023/06/05 08:43:08;;;;;;;6.85;4.25;;;;;;;19.22;69.14;102193.13;4987632;28;20062;-65
2023/06/05 08:45:35;;;;;;;11.48;5.20;;;;;;;19.63;67.54;102197.47;4973162;28;20605;-64
2023/06/05 08:48:02;;;;;;;12.13;4.93;;;;;;;20.00;63.65;102186.16;4988402;28;20054;-65
2023/06/05 08:50:32;;;;;;;9.93;4.47;;;;;;;20.27;62.81;102186.69;4982708;28;20086;-65
2023/06/05 08:53:01;;;;;;;11.02;4.75;;;;;;;20.57;62.54;102187.59;4971738;28;20054;-65
2023/06/05 08:55:28;;;;;;;6.78;4.43;;;;;;;20.93;61.28;102186.97;4974792;28;20047;-65
2023/06/05 08:57:55;;;;;;;9.75;5.00;;;;;;;21.20;59.71;102190.84;4966115;28;20086;-64
2023/06/05 09:00:22;;;;;;;9.15;5.22;;;;;;;21.39;59.15;102178.81;4979490;28;20077;-65
2023/06/05 09:02:49;;;;;;;8.63;5.05;;;;;;;21.63;58.07;102182.22;4967682;28;20061;-65
2023/06/05 09:05:16;;;;;;;9.77;4.85;;;;;;;21.81;57.91;102179.94;4972518;28;20495;-66
2023/06/05 09:07:43;;;;;;;12.48;5.10;;;;;;;22.14;57.30;102179.47;4963501;28;20595;-66
2023/06/05 09:10:24;;;;;;;9.27;4.88;;;;;;;22.39;55.76;102174.63;4970871;28;20105;-65
2023/06/05 09:13:03;;;;;;;8.68;5.28;;;;;;;22.55;55.91;102173.50;4984857;28;20357;-64
2023/06/05 09:15:31;;;;;;;8.75;4.55;;;;;;;22.71;54.82;102170.53;4979817;28;20046;-65
2023/06/05 09:18:08;;;;;;;11.27;4.45;;;;;;;22.92;54.52;102168.03;4969761;28;20043;-66
2023/06/05 09:20:39;;;;;;;8.73;4.82;;;;;;;23.19;53.99;102164.53;4971639;28;20547;-65
2023/06/05 09:23:28;;;;;;;8.85;4.47;;;;;;;23.43;54.16;102162.38;4981238;28;20042;-66
2023/06/05 09:25:57;;;;;;;12.73;5.53;;;;;;;23.47;52.54;102164.44;4980245;28;20096;-66
2023/06/05 09:28:24;;;;;;;7.70;5.22;;;;;;;23.59;52.85;102159.31;4986855;28;20050;-65
2023/06/05 09:31:03;;;;;;;7.55;4.68;;;;;;;23.75;52.44;102162.69;4971643;28;20058;-66
2023/06/05 09:33:33;;;;;;;7.60;4.53;;;;;;;23.95;52.58;102152.84;4975740;28;20054;-64
2023/06/05 09:36:03;;;;;;;9.85;4.45;;;;;;;24.23;52.44;102159.94;4981335;28;20465;-65
2023/06/05 09:38:30;;;;;;;5.22;3.88;;;;;;;24.40;51.43;102157.66;4967972;28;20054;-66
2023/06/05 09:41:11;;;;;;;7.00;4.20;;;;;;;24.48;50.50;102160.97;4987470;28;20105;-67
2023/06/05 09:43:38;;;;;;;8.20;4.60;;;;;;;24.59;51.06;102158.72;4979204;28;20046;-65
2023/06/05 09:46:12;;;;;;;10.23;5.15;;;;;;;24.72;50.29;102158.69;4961233;28;20192;-65
2023/06/05 09:48:40;;;;;;;8.35;4.60;;;;;;;24.74;49.40;102156.63;4974878;28;20066;-66
2023/06/05 09:51:17;;;;;;;8.20;4.93;;;;;;;24.87;49.38;102153.09;4971825;28;20054;-66
2023/06/05 09:53:47;;;;;;;7.63;5.00;;;;;;;25.02;50.24;102151.00;4979070;28;20115;-66
2023/06/05 09:56:15;;;;;;;8.48;4.60;;;;;;;25.18;48.99;102154.25;4973790;28;20486;-65
2023/06/05 09:58:45;;;;;;;8.02;4.78;;;;;;;25.17;49.23;102155.28;4984685;28;20054;-67
2023/06/05 10:01:16;;;;;;;7.07;4.50;;;;;;;25.36;48.72;102148.22;4968307;28;20054;-67
2023/06/05 10:03:47;;;;;;;7.57;4.82;;;;;;;25.42;48.97;102142.84;4973033;28;20073;-66
2023/06/05 10:06:15;;;;;;;11.25;4.65;;;;;;;25.62;48.38;102152.66;4971983;28;20132;-67
2023/06/05 10:08:48;;;;;;;6.43;4.45;;;;;;;25.62;47.39;102145.44;4977617;28;20057;-66
2023/06/05 10:11:16;;;;;;;8.93;4.47;;;;;;;25.88;47.99;102137.44;4976142;28;20378;-67
2023/06/05 10:13:45;;;;;;;7.53;4.45;;;;;;;25.83;47.97;102135.38;4972514;28;20043;-66
2023/06/05 10:16:11;;;;;;;7.88;4.60;;;;;;;25.98;48.23;102140.47;4982612;28;20054;-66
2023/06/05 10:18:50;;;;;;;9.05;4.07;;;;;;;26.16;48.16;102139.72;4965563;28;20510;-66
2023/06/05 10:21:18;;;;;;;8.63;4.55;;;;;;;26.41;47.59;102140.56;4978935;28;21058;-66
2023/06/05 10:23:50;;;;;;;10.63;5.95;;;;;;;26.44;45.68;102134.75;4976145;28;20632;-66
2023/06/05 10:26:35;;;;;;;7.85;4.20;;;;;;;26.52;46.12;102130.94;4974680;28;20058;-65
2023/06/05 10:29:17;;;;;;;6.63;4.50;;;;;;;26.70;45.65;102132.03;4981387;28;20046;-68
2023/06/05 10:31:59;;;;;;;7.65;4.65;;;;;;;26.84;45.34;102128.16;4973023;28;20054;-66
2023/06/05 10:34:48;;;;;;;8.57;5.65;;;;;;;27.05;45.25;102126.91;4988542;28;21067;-66
2023/06/05 10:37:39;;;;;;;9.40;5.63;;;;;;;27.08;44.94;102131.81;4978758;28;20078;-66
2023/06/05 10:40:06;;;;;;;9.50;4.10;;;;;;;27.27;44.69;102123.78;4979687;28;20903;-66
2023/06/05 10:42:34;;;;;;;8.30;4.68;;;;;;;27.30;44.55;102126.00;4982739;28;20688;-67
2023/06/05 10:45:00;;;;;;;;;;;;;;;27.30;44.56;102124.13;4972301;28;20046;-66
2023/06/05 10:47:33;;;;;;;7.47;5.00;;;;;;;27.44;44.25;102132.03;4952754;28;19926;-69
2023/06/05 10:50:15;;;;;;;10.15;4.55;;;;;;;27.55;44.08;102124.00;4988550;28;20054;-66
2023/06/05 10:52:43;;;;;;;10.63;4.75;;;;;;;27.67;43.98;102123.22;4972342;28;20054;-67
2023/06/05 10:55:12;;;;;;;10.02;5.05;;;;;;;27.60;44.19;102110.66;4976057;28;20130;-66
2023/06/05 10:58:00;;;;;;;7.85;4.38;;;;;;;27.70;44.38;102118.19;4967703;28;20138;-66
2023/06/05 11:00:31;;;;;;;8.77;5.10;;;;;;;27.78;43.06;102112.47;4980666;28;20082;-68
2023/06/05 11:02:58;;;;;;;7.35;4.68;;;;;;;27.85;43.46;102117.75;4987630;28;20046;-69
2023/06/05 11:05:28;;;;;;;7.38;5.28;;;;;;;27.91;42.67;102110.66;4980780;28;20089;-69
2023/06/05 11:08:17;;;;;;;7.50;5.00;;;;;;;27.92;42.36;102112.31;4981488;28;20046;-66
2023/06/05 11:11:03;;;;;;;6.82;4.50;;;;;;;28.05;43.85;102109.41;4981526;28;20054;-66
2023/06/05 11:13:55;;;;;;;6.85;4.90;;;;;;;28.20;42.70;102109.75;4971602;28;20079;-69
2023/06/05 11:16:26;;;;;;;7.82;4.57;;;;;;;28.37;43.52;102100.97;4972811;28;20125;-66
2023/06/05 11:18:54;;;;;;;5.90;4.50;;;;;;;28.45;42.70;102107.91;4988255;28;20484;-67
2023/06/05 11:21:21;;;;;;;7.05;4.57;;;;;;;28.47;41.72;102103.09;4970593;28;20065;-68
2023/06/05 11:24:16;;;;;;;8.80;3.65;;;;;;;28.44;42.43;102100.84;4981263;28;20517;-67
2023/06/05 11:26:43;;;;;;;8.32;4.05;;;;;;;28.54;42.26;102096.53;4971573;28;20050;-66
2023/06/05 11:29:12;;;;;;;6.80;4.07;;;;;;;28.72;42.87;102090.16;4982777;28;20043;-66